Home > Products > Valid Products > TAF

000
FTUS43 KDMX 031153 AAA
TAFMCW
TAF AMD
KMCW 031153Z 0312/0412 15005KT 4SM BR SCT005
      TEMPO 0312/0314 2SM BR SCT004
     FM031400 18011KT P6SM FEW050 SCT150
     FM040000 14005KT P6SM BKN150=



000
FTUS43 KDMX 031153 AAA
TAFMCW
TAF AMD
KMCW 031153Z 0312/0412 15005KT 4SM BR SCT005
      TEMPO 0312/0314 2SM BR SCT004
     FM031400 18011KT P6SM FEW050 SCT150
     FM040000 14005KT P6SM BKN150=



000
FTUS43 KDMX 031153 AAA
TAFMCW
TAF AMD
KMCW 031153Z 0312/0412 15005KT 4SM BR SCT005
      TEMPO 0312/0314 2SM BR SCT004
     FM031400 18011KT P6SM FEW050 SCT150
     FM040000 14005KT P6SM BKN150=



000
FTUS43 KDMX 031120
TAFFOD
TAF
KFOD 031120Z 0312/0412 17010KT P6SM SCT080=



000
FTUS43 KDMX 031120
TAFDSM
TAF
KDSM 031120Z 0312/0412 17007KT P6SM SCT100 SCT250
     FM031500 19011KT P6SM SCT060 SCT150
     FM040100 15005KT P6SM SCT200=



000
FTUS43 KDMX 031120
TAFFOD
TAF
KFOD 031120Z 0312/0412 17010KT P6SM SCT080=



000
FTUS43 KDMX 031120
TAFOTM
TAF
KOTM 031120Z 0312/0412 19006KT P6SM BKN110
     FM031500 20011KT P6SM BKN080
     FM040000 18005KT P6SM SCT150=



000
FTUS43 KDMX 031120
TAFDSM
TAF
KDSM 031120Z 0312/0412 17007KT P6SM SCT100 SCT250
     FM031500 19011KT P6SM SCT060 SCT150
     FM040100 15005KT P6SM SCT200=



000
FTUS43 KDMX 031120
TAFMCW
TAF
KMCW 031120Z 0312/0412 20005KT 6SM BR SCT005
      TEMPO 0312/0314 4SM BR SCT004
     FM031400 18011KT P6SM FEW050 SCT150
     FM040000 14005KT P6SM BKN150=



000
FTUS43 KDMX 031120
TAFDSM
TAF
KDSM 031120Z 0312/0412 17007KT P6SM SCT100 SCT250
     FM031500 19011KT P6SM SCT060 SCT150
     FM040100 15005KT P6SM SCT200=



000
FTUS43 KDMX 031120
TAFALO
TAF
KALO 031120Z 0312/0412 19010KT P6SM SCT100
     FM040000 14005KT P6SM SCT150=



000
FTUS43 KDMX 031120
TAFMCW
TAF
KMCW 031120Z 0312/0412 20005KT 6SM BR SCT005
      TEMPO 0312/0314 4SM BR SCT004
     FM031400 18011KT P6SM FEW050 SCT150
     FM040000 14005KT P6SM BKN150=



000
FTUS43 KDMX 031120
TAFFOD
TAF
KFOD 031120Z 0312/0412 17010KT P6SM SCT080=



000
FTUS43 KDMX 031120
TAFALO
TAF
KALO 031120Z 0312/0412 19010KT P6SM SCT100
     FM040000 14005KT P6SM SCT150=



000
FTUS43 KDMX 031120
TAFDSM
TAF
KDSM 031120Z 0312/0412 17007KT P6SM SCT100 SCT250
     FM031500 19011KT P6SM SCT060 SCT150
     FM040100 15005KT P6SM SCT200=



000
FTUS43 KDMX 031120
TAFFOD
TAF
KFOD 031120Z 0312/0412 17010KT P6SM SCT080=



000
FTUS43 KDMX 031120
TAFOTM
TAF
KOTM 031120Z 0312/0412 19006KT P6SM BKN110
     FM031500 20011KT P6SM BKN080
     FM040000 18005KT P6SM SCT150=



000
FTUS43 KDMX 031120
TAFOTM
TAF
KOTM 031120Z 0312/0412 19006KT P6SM BKN110
     FM031500 20011KT P6SM BKN080
     FM040000 18005KT P6SM SCT150=



000
FTUS43 KDMX 031120
TAFMCW
TAF
KMCW 031120Z 0312/0412 20005KT 6SM BR SCT005
      TEMPO 0312/0314 4SM BR SCT004
     FM031400 18011KT P6SM FEW050 SCT150
     FM040000 14005KT P6SM BKN150=



000
FTUS43 KDMX 031120
TAFALO
TAF
KALO 031120Z 0312/0412 19010KT P6SM SCT100
     FM040000 14005KT P6SM SCT150=



000
FTUS43 KDMX 031120
TAFMCW
TAF
KMCW 031120Z 0312/0412 20005KT 6SM BR SCT005
      TEMPO 0312/0314 4SM BR SCT004
     FM031400 18011KT P6SM FEW050 SCT150
     FM040000 14005KT P6SM BKN150=



000
FTUS43 KDMX 031120
TAFOTM
TAF
KOTM 031120Z 0312/0412 19006KT P6SM BKN110
     FM031500 20011KT P6SM BKN080
     FM040000 18005KT P6SM SCT150=



000
FTUS43 KDMX 031120
TAFALO
TAF
KALO 031120Z 0312/0412 19010KT P6SM SCT100
     FM040000 14005KT P6SM SCT150=



000
FTUS43 KDMX 030900 AAA
TAFMCW
TAF AMD
KMCW 030900Z 0309/0406 20005KT 3SM BR SKC
      TEMPO 0310/0312 1SM BR SCT002
     FM031500 19011KT P6SM FEW025 SCT250
     FM032100 17005KT P6SM BKN220=



000
FTUS43 KDMX 030900 AAA
TAFMCW
TAF AMD
KMCW 030900Z 0309/0406 20005KT 3SM BR SKC
      TEMPO 0310/0312 1SM BR SCT002
     FM031500 19011KT P6SM FEW025 SCT250
     FM032100 17005KT P6SM BKN220=



000
FTUS43 KDMX 030520
TAFDSM
TAF
KDSM 030520Z 0306/0406 17007KT P6SM SCT100 SCT250
     FM031500 19011G17KT P6SM SCT060 BKN090
     FM032300 19007KT P6SM FEW060 SCT110
     FM040100 15005KT P6SM SCT220=



000
FTUS43 KDMX 030520
TAFMCW
TAF
KMCW 030520Z 0306/0406 18005KT P6SM SCT110
     FM031000 21005KT 6SM BR SKC
      TEMPO 0310/0312 5SM BR
     FM031500 19011KT P6SM FEW025 SCT250
     FM032100 17005KT P6SM BKN220=



000
FTUS43 KDMX 030520
TAFOTM
TAF
KOTM 030520Z 0306/0406 18006KT P6SM BKN110
     FM031500 21014KT P6SM BKN080
     FM032100 19011KT P6SM BKN070
     FM032300 18005KT P6SM SCT070=



000
FTUS43 KDMX 030520
TAFFOD
TAF
KFOD 030520Z 0306/0406 20007KT P6SM SKC
     FM031500 19009G13KT P6SM SCT030 SCT080
     FM032300 18005KT P6SM FEW090=



000
FTUS43 KDMX 030520
TAFALO
TAF
KALO 030520Z 0306/0406 18007KT P6SM SCT110
      TEMPO 0310/0312 14003KT 5SM BR
     FM031500 19010KT P6SM SCT060 SCT250
     FM032200 21005KT P6SM SCT220=



000
FTUS43 KDMX 030520
TAFFOD
TAF
KFOD 030520Z 0306/0406 20007KT P6SM SKC
     FM031500 19009G13KT P6SM SCT030 SCT080
     FM032300 18005KT P6SM FEW090=



000
FTUS43 KDMX 030520
TAFOTM
TAF
KOTM 030520Z 0306/0406 18006KT P6SM BKN110
     FM031500 21014KT P6SM BKN080
     FM032100 19011KT P6SM BKN070
     FM032300 18005KT P6SM SCT070=



000
FTUS43 KDMX 030520
TAFMCW
TAF
KMCW 030520Z 0306/0406 18005KT P6SM SCT110
     FM031000 21005KT 6SM BR SKC
      TEMPO 0310/0312 5SM BR
     FM031500 19011KT P6SM FEW025 SCT250
     FM032100 17005KT P6SM BKN220=



000
FTUS43 KDMX 030520
TAFDSM
TAF
KDSM 030520Z 0306/0406 17007KT P6SM SCT100 SCT250
     FM031500 19011G17KT P6SM SCT060 BKN090
     FM032300 19007KT P6SM FEW060 SCT110
     FM040100 15005KT P6SM SCT220=



000
FTUS43 KDMX 030520
TAFDSM
TAF
KDSM 030520Z 0306/0406 17007KT P6SM SCT100 SCT250
     FM031500 19011G17KT P6SM SCT060 BKN090
     FM032300 19007KT P6SM FEW060 SCT110
     FM040100 15005KT P6SM SCT220=



000
FTUS43 KDMX 030520
TAFOTM
TAF
KOTM 030520Z 0306/0406 18006KT P6SM BKN110
     FM031500 21014KT P6SM BKN080
     FM032100 19011KT P6SM BKN070
     FM032300 18005KT P6SM SCT070=



000
FTUS43 KDMX 030520
TAFMCW
TAF
KMCW 030520Z 0306/0406 18005KT P6SM SCT110
     FM031000 21005KT 6SM BR SKC
      TEMPO 0310/0312 5SM BR
     FM031500 19011KT P6SM FEW025 SCT250
     FM032100 17005KT P6SM BKN220=



000
FTUS43 KDMX 030520
TAFALO
TAF
KALO 030520Z 0306/0406 18007KT P6SM SCT110
      TEMPO 0310/0312 14003KT 5SM BR
     FM031500 19010KT P6SM SCT060 SCT250
     FM032200 21005KT P6SM SCT220=



000
FTUS43 KDMX 030520
TAFFOD
TAF
KFOD 030520Z 0306/0406 20007KT P6SM SKC
     FM031500 19009G13KT P6SM SCT030 SCT080
     FM032300 18005KT P6SM FEW090=



000
FTUS43 KDMX 030520
TAFALO
TAF
KALO 030520Z 0306/0406 18007KT P6SM SCT110
      TEMPO 0310/0312 14003KT 5SM BR
     FM031500 19010KT P6SM SCT060 SCT250
     FM032200 21005KT P6SM SCT220=



000
FTUS43 KDMX 022320
TAFALO
TAF
KALO 022320Z 0300/0324 20011KT P6SM SKC
     FM031500 19010KT P6SM SCT060 SCT250
     FM032200 21005KT P6SM SCT220=



000
FTUS43 KDMX 022320
TAFMCW
TAF
KMCW 022320Z 0300/0324 18008KT P6SM SKC
     FM031000 21005KT 6SM BR SKC
      TEMPO 0310/0312 5SM BR
     FM031500 19011KT P6SM FEW025 SCT250
     FM032100 17005KT P6SM BKN220=



000
FTUS43 KDMX 022320
TAFDSM
TAF
KDSM 022320Z 0300/0324 18010KT P6SM SCT100 SCT250
     FM031500 19011G18KT P6SM SCT060
     FM032300 19007KT P6SM FEW060 SCT220=



000
FTUS43 KDMX 022320
TAFOTM
TAF
KOTM 022320Z 0300/0324 18006KT P6SM SCT110
     FM031500 21014KT P6SM SCT060
     FM032100 19011KT P6SM BKN070
     FM032300 18005KT P6SM SCT070=



000
FTUS43 KDMX 022320
TAFALO
TAF
KALO 022320Z 0300/0324 20011KT P6SM SKC
     FM031500 19010KT P6SM SCT060 SCT250
     FM032200 21005KT P6SM SCT220=



000
FTUS43 KDMX 022320
TAFFOD
TAF
KFOD 022320Z 0300/0324 20007KT P6SM SKC
     FM031500 19009G13KT P6SM SCT030 SCT080=



000
FTUS43 KDMX 022320
TAFFOD
TAF
KFOD 022320Z 0300/0324 20007KT P6SM SKC
     FM031500 19009G13KT P6SM SCT030 SCT080=



000
FTUS43 KDMX 022320
TAFFOD
TAF
KFOD 022320Z 0300/0324 20007KT P6SM SKC
     FM031500 19009G13KT P6SM SCT030 SCT080=



000
FTUS43 KDMX 022320
TAFDSM
TAF
KDSM 022320Z 0300/0324 18010KT P6SM SCT100 SCT250
     FM031500 19011G18KT P6SM SCT060
     FM032300 19007KT P6SM FEW060 SCT220=



000
FTUS43 KDMX 022320
TAFALO
TAF
KALO 022320Z 0300/0324 20011KT P6SM SKC
     FM031500 19010KT P6SM SCT060 SCT250
     FM032200 21005KT P6SM SCT220=



000
FTUS43 KDMX 022320
TAFOTM
TAF
KOTM 022320Z 0300/0324 18006KT P6SM SCT110
     FM031500 21014KT P6SM SCT060
     FM032100 19011KT P6SM BKN070
     FM032300 18005KT P6SM SCT070=



000
FTUS43 KDMX 022320
TAFDSM
TAF
KDSM 022320Z 0300/0324 18010KT P6SM SCT100 SCT250
     FM031500 19011G18KT P6SM SCT060
     FM032300 19007KT P6SM FEW060 SCT220=



000
FTUS43 KDMX 022320
TAFOTM
TAF
KOTM 022320Z 0300/0324 18006KT P6SM SCT110
     FM031500 21014KT P6SM SCT060
     FM032100 19011KT P6SM BKN070
     FM032300 18005KT P6SM SCT070=



000
FTUS43 KDMX 022320
TAFFOD
TAF
KFOD 022320Z 0300/0324 20007KT P6SM SKC
     FM031500 19009G13KT P6SM SCT030 SCT080=



000
FTUS43 KDMX 022320
TAFDSM
TAF
KDSM 022320Z 0300/0324 18010KT P6SM SCT100 SCT250
     FM031500 19011G18KT P6SM SCT060
     FM032300 19007KT P6SM FEW060 SCT220=



000
FTUS43 KDMX 022320
TAFALO
TAF
KALO 022320Z 0300/0324 20011KT P6SM SKC
     FM031500 19010KT P6SM SCT060 SCT250
     FM032200 21005KT P6SM SCT220=



000
FTUS43 KDMX 022320
TAFMCW
TAF
KMCW 022320Z 0300/0324 18008KT P6SM SKC
     FM031000 21005KT 6SM BR SKC
      TEMPO 0310/0312 5SM BR
     FM031500 19011KT P6SM FEW025 SCT250
     FM032100 17005KT P6SM BKN220=



000
FTUS43 KDMX 022320
TAFMCW
TAF
KMCW 022320Z 0300/0324 18008KT P6SM SKC
     FM031000 21005KT 6SM BR SKC
      TEMPO 0310/0312 5SM BR
     FM031500 19011KT P6SM FEW025 SCT250
     FM032100 17005KT P6SM BKN220=



000
FTUS43 KDMX 022320
TAFOTM
TAF
KOTM 022320Z 0300/0324 18006KT P6SM SCT110
     FM031500 21014KT P6SM SCT060
     FM032100 19011KT P6SM BKN070
     FM032300 18005KT P6SM SCT070=



000
FTUS43 KDMX 022320
TAFMCW
TAF
KMCW 022320Z 0300/0324 18008KT P6SM SKC
     FM031000 21005KT 6SM BR SKC
      TEMPO 0310/0312 5SM BR
     FM031500 19011KT P6SM FEW025 SCT250
     FM032100 17005KT P6SM BKN220=



000
FTUS43 KDMX 022148 AAA
TAFFOD
TAF AMD
KFOD 022148Z 0222/0318 21013G18KT P6SM SKC
     FM030000 19009KT P6SM SKC=



000
FTUS43 KDMX 022148 AAA
TAFFOD
TAF AMD
KFOD 022148Z 0222/0318 21013G18KT P6SM SKC
     FM030000 19009KT P6SM SKC=



000
FTUS43 KDMX 022124 AAA
TAFDSM
TAF AMD
KDSM 022124Z 0221/0318 22013KT P6SM FEW100 FEW200
     FM030000 17007KT P6SM SKC
     FM031500 19011G19KT P6SM SKC=



000
FTUS43 KDMX 022124 AAA
TAFDSM
TAF AMD
KDSM 022124Z 0221/0318 22013KT P6SM FEW100 FEW200
     FM030000 17007KT P6SM SKC
     FM031500 19011G19KT P6SM SKC=



000
FTUS43 KDMX 022123 AAA
TAFALO
TAF AMD
KALO 022123Z 0221/0318 22012KT P6SM SKC
     FM030000 17008KT P6SM SKC
     FM031500 19010G18KT P6SM SKC=



000
FTUS43 KDMX 022123 AAA
TAFALO
TAF AMD
KALO 022123Z 0221/0318 22012KT P6SM SKC
     FM030000 17008KT P6SM SKC
     FM031500 19010G18KT P6SM SKC=



000
FTUS43 KDMX 022123 AAA
TAFMCW
TAF AMD
KMCW 022123Z 0221/0318 23013KT P6SM SKC
     FM030000 18008KT P6SM FEW070
     FM031500 19011G20KT P6SM SKC=



000
FTUS43 KDMX 022123 AAA
TAFMCW
TAF AMD
KMCW 022123Z 0221/0318 23013KT P6SM SKC
     FM030000 18008KT P6SM FEW070
     FM031500 19011G20KT P6SM SKC=



000
FTUS43 KDMX 022123 AAA
TAFALO
TAF AMD
KALO 022123Z 0221/0318 22012KT P6SM SKC
     FM030000 17008KT P6SM SKC
     FM031500 19010G18KT P6SM SKC=



000
FTUS43 KDMX 022123 AAA
TAFALO
TAF AMD
KALO 022123Z 0221/0318 22012KT P6SM SKC
     FM030000 17008KT P6SM SKC
     FM031500 19010G18KT P6SM SKC=



000
FTUS43 KDMX 022123 AAA
TAFMCW
TAF AMD
KMCW 022123Z 0221/0318 23013KT P6SM SKC
     FM030000 18008KT P6SM FEW070
     FM031500 19011G20KT P6SM SKC=



000
FTUS43 KDMX 022123 AAA
TAFMCW
TAF AMD
KMCW 022123Z 0221/0318 23013KT P6SM SKC
     FM030000 18008KT P6SM FEW070
     FM031500 19011G20KT P6SM SKC=



000
FTUS43 KDMX 021720
TAFFOD
TAF
KFOD 021720Z 0218/0318 19018G26KT P6SM SKC
     FM030000 19009KT P6SM SKC=



000
FTUS43 KDMX 021720
TAFDSM
TAF
KDSM 021720Z 0218/0318 21017G25KT P6SM FEW250
     FM030000 17007KT P6SM SKC
     FM031500 19011G19KT P6SM SKC=



000
FTUS43 KDMX 021720
TAFOTM
TAF
KOTM 021720Z 0218/0318 22014G24KT P6SM SKC
     FM030000 17006KT P6SM SKC=



000
FTUS43 KDMX 021720
TAFMCW
TAF
KMCW 021720Z 0218/0318 21022G27KT P6SM SKC
     FM030000 18008KT P6SM FEW070
     FM031500 19011G20KT P6SM SKC=



000
FTUS43 KDMX 021720
TAFALO
TAF
KALO 021720Z 0218/0318 18017G25KT P6SM FEW080
     FM030000 17008KT P6SM SKC
     FM031500 19010G18KT P6SM SKC=



000
FTUS43 KDMX 021720
TAFFOD
TAF
KFOD 021720Z 0218/0318 19018G26KT P6SM SKC
     FM030000 19009KT P6SM SKC=



000
FTUS43 KDMX 021720
TAFMCW
TAF
KMCW 021720Z 0218/0318 21022G27KT P6SM SKC
     FM030000 18008KT P6SM FEW070
     FM031500 19011G20KT P6SM SKC=



000
FTUS43 KDMX 021720
TAFOTM
TAF
KOTM 021720Z 0218/0318 22014G24KT P6SM SKC
     FM030000 17006KT P6SM SKC=



000
FTUS43 KDMX 021720
TAFFOD
TAF
KFOD 021720Z 0218/0318 19018G26KT P6SM SKC
     FM030000 19009KT P6SM SKC=



000
FTUS43 KDMX 021720
TAFDSM
TAF
KDSM 021720Z 0218/0318 21017G25KT P6SM FEW250
     FM030000 17007KT P6SM SKC
     FM031500 19011G19KT P6SM SKC=



000
FTUS43 KDMX 021720
TAFALO
TAF
KALO 021720Z 0218/0318 18017G25KT P6SM FEW080
     FM030000 17008KT P6SM SKC
     FM031500 19010G18KT P6SM SKC=



000
FTUS43 KDMX 021720
TAFMCW
TAF
KMCW 021720Z 0218/0318 21022G27KT P6SM SKC
     FM030000 18008KT P6SM FEW070
     FM031500 19011G20KT P6SM SKC=



000
FTUS43 KDMX 021720
TAFFOD
TAF
KFOD 021720Z 0218/0318 19018G26KT P6SM SKC
     FM030000 19009KT P6SM SKC=



000
FTUS43 KDMX 021720
TAFDSM
TAF
KDSM 021720Z 0218/0318 21017G25KT P6SM FEW250
     FM030000 17007KT P6SM SKC
     FM031500 19011G19KT P6SM SKC=



000
FTUS43 KDMX 021720
TAFALO
TAF
KALO 021720Z 0218/0318 18017G25KT P6SM FEW080
     FM030000 17008KT P6SM SKC
     FM031500 19010G18KT P6SM SKC=



000
FTUS43 KDMX 021720
TAFMCW
TAF
KMCW 021720Z 0218/0318 21022G27KT P6SM SKC
     FM030000 18008KT P6SM FEW070
     FM031500 19011G20KT P6SM SKC=



000
FTUS43 KDMX 021720
TAFOTM
TAF
KOTM 021720Z 0218/0318 22014G24KT P6SM SKC
     FM030000 17006KT P6SM SKC=



000
FTUS43 KDMX 021720
TAFALO
TAF
KALO 021720Z 0218/0318 18017G25KT P6SM FEW080
     FM030000 17008KT P6SM SKC
     FM031500 19010G18KT P6SM SKC=



000
FTUS43 KDMX 021720
TAFDSM
TAF
KDSM 021720Z 0218/0318 21017G25KT P6SM FEW250
     FM030000 17007KT P6SM SKC
     FM031500 19011G19KT P6SM SKC=



000
FTUS43 KDMX 021720
TAFOTM
TAF
KOTM 021720Z 0218/0318 22014G24KT P6SM SKC
     FM030000 17006KT P6SM SKC=



000
FTUS43 KDMX 021124
TAFALO
TAF
KALO 021124Z 0212/0312 20009KT P6SM VCSH OVC070
     FM021500 18013G20KT P6SM FEW100
     FM030000 17007KT P6SM SCT080=



000
FTUS43 KDMX 021124
TAFALO
TAF
KALO 021124Z 0212/0312 20009KT P6SM VCSH OVC070
     FM021500 18013G20KT P6SM FEW100
     FM030000 17007KT P6SM SCT080=



000
FTUS43 KDMX 021124
TAFOTM
TAF
KOTM 021124Z 0212/0312 18007KT 6SM BR VCSH OVC100
     FM021600 19011G17KT P6SM SCT120
     FM030000 17006KT P6SM BKN080=



000
FTUS43 KDMX 021124
TAFFOD
TAF
KFOD 021124Z 0212/0312 18010KT P6SM FEW070
     FM021500 19013G20KT P6SM SKC
     FM030000 18007KT P6SM FEW080=



000
FTUS43 KDMX 021124
TAFDSM
TAF
KDSM 021124Z 0212/0312 19010KT P6SM BKN080
      TEMPO 0212/0213 5SM -TSRA SCT030CB
     FM021500 19014G20KT P6SM SKC
     FM030000 17007KT P6SM SCT080=



000
FTUS43 KDMX 021124
TAFDSM
TAF
KDSM 021124Z 0212/0312 19010KT P6SM BKN080
      TEMPO 0212/0213 5SM -TSRA SCT030CB
     FM021500 19014G20KT P6SM SKC
     FM030000 17007KT P6SM SCT080=



000
FTUS43 KDMX 021124
TAFFOD
TAF
KFOD 021124Z 0212/0312 18010KT P6SM FEW070
     FM021500 19013G20KT P6SM SKC
     FM030000 18007KT P6SM FEW080=



000
FTUS43 KDMX 021124
TAFMCW
TAF
KMCW 021124Z 0212/0312 18010KT P6SM BKN070
     FM021500 19014G21KT P6SM SKC
     FM030000 18008KT P6SM FEW070=



000
FTUS43 KDMX 021124
TAFALO
TAF
KALO 021124Z 0212/0312 20009KT P6SM VCSH OVC070
     FM021500 18013G20KT P6SM FEW100
     FM030000 17007KT P6SM SCT080=



000
FTUS43 KDMX 021124
TAFDSM
TAF
KDSM 021124Z 0212/0312 19010KT P6SM BKN080
      TEMPO 0212/0213 5SM -TSRA SCT030CB
     FM021500 19014G20KT P6SM SKC
     FM030000 17007KT P6SM SCT080=



000
FTUS43 KDMX 021124
TAFOTM
TAF
KOTM 021124Z 0212/0312 18007KT 6SM BR VCSH OVC100
     FM021600 19011G17KT P6SM SCT120
     FM030000 17006KT P6SM BKN080=



000
FTUS43 KDMX 021124
TAFOTM
TAF
KOTM 021124Z 0212/0312 18007KT 6SM BR VCSH OVC100
     FM021600 19011G17KT P6SM SCT120
     FM030000 17006KT P6SM BKN080=



000
FTUS43 KDMX 021124
TAFFOD
TAF
KFOD 021124Z 0212/0312 18010KT P6SM FEW070
     FM021500 19013G20KT P6SM SKC
     FM030000 18007KT P6SM FEW080=



000
FTUS43 KDMX 021124
TAFMCW
TAF
KMCW 021124Z 0212/0312 18010KT P6SM BKN070
     FM021500 19014G21KT P6SM SKC
     FM030000 18008KT P6SM FEW070=



000
FTUS43 KDMX 021124
TAFMCW
TAF
KMCW 021124Z 0212/0312 18010KT P6SM BKN070
     FM021500 19014G21KT P6SM SKC
     FM030000 18008KT P6SM FEW070=



000
FTUS43 KDMX 021124
TAFOTM
TAF
KOTM 021124Z 0212/0312 18007KT 6SM BR VCSH OVC100
     FM021600 19011G17KT P6SM SCT120
     FM030000 17006KT P6SM BKN080=



000
FTUS43 KDMX 021124
TAFMCW
TAF
KMCW 021124Z 0212/0312 18010KT P6SM BKN070
     FM021500 19014G21KT P6SM SKC
     FM030000 18008KT P6SM FEW070=



000
FTUS43 KDMX 021124
TAFFOD
TAF
KFOD 021124Z 0212/0312 18010KT P6SM FEW070
     FM021500 19013G20KT P6SM SKC
     FM030000 18007KT P6SM FEW080=



000
FTUS43 KDMX 021124
TAFALO
TAF
KALO 021124Z 0212/0312 20009KT P6SM VCSH OVC070
     FM021500 18013G20KT P6SM FEW100
     FM030000 17007KT P6SM SCT080=



000
FTUS43 KDMX 021124
TAFDSM
TAF
KDSM 021124Z 0212/0312 19010KT P6SM BKN080
      TEMPO 0212/0213 5SM -TSRA SCT030CB
     FM021500 19014G20KT P6SM SKC
     FM030000 17007KT P6SM SCT080=



000
FTUS43 KDMX 020520
TAFOTM
TAF
KOTM 020520Z 0206/0306 21010KT P6SM FEW110 OVC300
     FM020700 19005KT 6SM BR SCT110 BKN250
     FM021400 19009KT P6SM BKN150
     FM021700 21011G18KT P6SM BKN070 BKN150
     FM022300 16007KT P6SM BKN070 OVC250=



000
FTUS43 KDMX 020520
TAFMCW
TAF
KMCW 020520Z 0206/0306 20006KT 5SM BR SCT050 BKN110
     FM020900 22005KT P6SM VCSH SCT080 BKN100
     FM021600 18013G22KT P6SM SCT050 SCT110
     FM022300 18010KT P6SM FEW060
     FM030100 17005KT P6SM SKC=



000
FTUS43 KDMX 020520
TAFFOD
TAF
KFOD 020520Z 0206/0306 19008KT P6SM SCT060 BKN100
      TEMPO 0207/0210 -SHRA BKN100
     FM021000 18007KT P6SM SCT060 BKN100
     FM021500 20013G20KT P6SM SCT060
     FM022300 18008KT P6SM FEW060=



000
FTUS43 KDMX 020520
TAFFOD
TAF
KFOD 020520Z 0206/0306 19008KT P6SM SCT060 BKN100
      TEMPO 0207/0210 -SHRA BKN100
     FM021000 18007KT P6SM SCT060 BKN100
     FM021500 20013G20KT P6SM SCT060
     FM022300 18008KT P6SM FEW060=



000
FTUS43 KDMX 020520
TAFDSM
TAF
KDSM 020520Z 0206/0306 18005KT P6SM FEW100 OVC300
     FM020900 18007KT P6SM VCSH SCT060 BKN110
      TEMPO 0210/0213 -SHRA BKN060
     FM021400 20012KT P6SM BKN060 BKN110
     FM021700 20015G22KT P6SM SCT060 BKN110
     FM030000 18007KT P6SM FEW060 SCT250=



000
FTUS43 KDMX 020520
TAFMCW
TAF
KMCW 020520Z 0206/0306 20006KT 5SM BR SCT050 BKN110
     FM020900 22005KT P6SM VCSH SCT080 BKN100
     FM021600 18013G22KT P6SM SCT050 SCT110
     FM022300 18010KT P6SM FEW060
     FM030100 17005KT P6SM SKC=



000
FTUS43 KDMX 020520
TAFMCW
TAF
KMCW 020520Z 0206/0306 20006KT 5SM BR SCT050 BKN110
     FM020900 22005KT P6SM VCSH SCT080 BKN100
     FM021600 18013G22KT P6SM SCT050 SCT110
     FM022300 18010KT P6SM FEW060
     FM030100 17005KT P6SM SKC=



000
FTUS43 KDMX 020520
TAFDSM
TAF
KDSM 020520Z 0206/0306 18005KT P6SM FEW100 OVC300
     FM020900 18007KT P6SM VCSH SCT060 BKN110
      TEMPO 0210/0213 -SHRA BKN060
     FM021400 20012KT P6SM BKN060 BKN110
     FM021700 20015G22KT P6SM SCT060 BKN110
     FM030000 18007KT P6SM FEW060 SCT250=



000
FTUS43 KDMX 020520
TAFALO
TAF
KALO 020520Z 0206/0306 18005KT 5SM BR BKN110
     FM021300 19011KT P6SM VCSH BKN060 BKN110
     FM021600 20013G22KT P6SM SCT060 BKN110
     FM030000 19010KT P6SM FEW060 BKN250=



000
FTUS43 KDMX 020520
TAFALO
TAF
KALO 020520Z 0206/0306 18005KT 5SM BR BKN110
     FM021300 19011KT P6SM VCSH BKN060 BKN110
     FM021600 20013G22KT P6SM SCT060 BKN110
     FM030000 19010KT P6SM FEW060 BKN250=



000
FTUS43 KDMX 020520
TAFFOD
TAF
KFOD 020520Z 0206/0306 19008KT P6SM SCT060 BKN100
      TEMPO 0207/0210 -SHRA BKN100
     FM021000 18007KT P6SM SCT060 BKN100
     FM021500 20013G20KT P6SM SCT060
     FM022300 18008KT P6SM FEW060=



000
FTUS43 KDMX 020520
TAFALO
TAF
KALO 020520Z 0206/0306 18005KT 5SM BR BKN110
     FM021300 19011KT P6SM VCSH BKN060 BKN110
     FM021600 20013G22KT P6SM SCT060 BKN110
     FM030000 19010KT P6SM FEW060 BKN250=



000
FTUS43 KDMX 020520
TAFOTM
TAF
KOTM 020520Z 0206/0306 21010KT P6SM FEW110 OVC300
     FM020700 19005KT 6SM BR SCT110 BKN250
     FM021400 19009KT P6SM BKN150
     FM021700 21011G18KT P6SM BKN070 BKN150
     FM022300 16007KT P6SM BKN070 OVC250=



000
FTUS43 KDMX 020520
TAFDSM
TAF
KDSM 020520Z 0206/0306 18005KT P6SM FEW100 OVC300
     FM020900 18007KT P6SM VCSH SCT060 BKN110
      TEMPO 0210/0213 -SHRA BKN060
     FM021400 20012KT P6SM BKN060 BKN110
     FM021700 20015G22KT P6SM SCT060 BKN110
     FM030000 18007KT P6SM FEW060 SCT250=



000
FTUS43 KDMX 020520
TAFMCW
TAF
KMCW 020520Z 0206/0306 20006KT 5SM BR SCT050 BKN110
     FM020900 22005KT P6SM VCSH SCT080 BKN100
     FM021600 18013G22KT P6SM SCT050 SCT110
     FM022300 18010KT P6SM FEW060
     FM030100 17005KT P6SM SKC=



000
FTUS43 KDMX 020520
TAFDSM
TAF
KDSM 020520Z 0206/0306 18005KT P6SM FEW100 OVC300
     FM020900 18007KT P6SM VCSH SCT060 BKN110
      TEMPO 0210/0213 -SHRA BKN060
     FM021400 20012KT P6SM BKN060 BKN110
     FM021700 20015G22KT P6SM SCT060 BKN110
     FM030000 18007KT P6SM FEW060 SCT250=



000
FTUS43 KDMX 020520
TAFOTM
TAF
KOTM 020520Z 0206/0306 21010KT P6SM FEW110 OVC300
     FM020700 19005KT 6SM BR SCT110 BKN250
     FM021400 19009KT P6SM BKN150
     FM021700 21011G18KT P6SM BKN070 BKN150
     FM022300 16007KT P6SM BKN070 OVC250=



000
FTUS43 KDMX 020520
TAFALO
TAF
KALO 020520Z 0206/0306 18005KT 5SM BR BKN110
     FM021300 19011KT P6SM VCSH BKN060 BKN110
     FM021600 20013G22KT P6SM SCT060 BKN110
     FM030000 19010KT P6SM FEW060 BKN250=



000
FTUS43 KDMX 012329
TAFOTM
TAF
KOTM 012329Z 0200/0224 21010KT P6SM FEW110 OVC300
     FM020700 19005KT 6SM BR SCT110 BKN250
     FM021400 19009KT P6SM BKN150
     FM021700 21013G20KT P6SM BKN070 BKN150
     FM022300 20008KT P6SM BKN070 OVC250=



000
FTUS43 KDMX 012329
TAFMCW
TAF
KMCW 012329Z 0200/0224 20008KT P6SM BKN110 BKN200
     FM020400 20006KT 5SM BR SCT050 BKN110
     FM020900 22005KT P6SM VCSH SCT080 BKN100
     FM021600 18013G22KT P6SM SCT050 SCT110
     FM022300 18010KT P6SM FEW060=



000
FTUS43 KDMX 012329
TAFFOD
TAF
KFOD 012329Z 0200/0224 19007KT P6SM FEW040 SCT250
     FM020600 19008KT P6SM SCT060 BKN100
      TEMPO 0206/0209 -SHRA BKN100
     FM020900 18007KT P6SM SCT060 BKN100
     FM021500 20013G20KT P6SM SCT060
     FM022300 18008KT P6SM FEW060=



000
FTUS43 KDMX 012329
TAFALO
TAF
KALO 012329Z 0200/0224 19009KT P6SM BKN110
     FM020600 18005KT 5SM BR BKN110
     FM021400 19011KT P6SM BKN060 BKN110
     FM021600 20013G22KT P6SM SCT060 BKN110
     FM022300 19011KT P6SM FEW060 BKN250=



000
FTUS43 KDMX 012329
TAFDSM
TAF
KDSM 012329Z 0200/0224 20007KT P6SM FEW100 OVC300
     FM020700 19008KT P6SM SCT100 BKN250
     FM020900 18007KT P6SM VCSH SCT060 BKN110
     FM021500 20012KT P6SM BKN060 BKN110
     FM021700 20015G22KT P6SM SCT060 BKN110
     FM022300 19008KT P6SM FEW060 SCT250=



000
FTUS43 KDMX 012329
TAFFOD
TAF
KFOD 012329Z 0200/0224 19007KT P6SM FEW040 SCT250
     FM020600 19008KT P6SM SCT060 BKN100
      TEMPO 0206/0209 -SHRA BKN100
     FM020900 18007KT P6SM SCT060 BKN100
     FM021500 20013G20KT P6SM SCT060
     FM022300 18008KT P6SM FEW060=



000
FTUS43 KDMX 012329
TAFMCW
TAF
KMCW 012329Z 0200/0224 20008KT P6SM BKN110 BKN200
     FM020400 20006KT 5SM BR SCT050 BKN110
     FM020900 22005KT P6SM VCSH SCT080 BKN100
     FM021600 18013G22KT P6SM SCT050 SCT110
     FM022300 18010KT P6SM FEW060=



000
FTUS43 KDMX 012329
TAFALO
TAF
KALO 012329Z 0200/0224 19009KT P6SM BKN110
     FM020600 18005KT 5SM BR BKN110
     FM021400 19011KT P6SM BKN060 BKN110
     FM021600 20013G22KT P6SM SCT060 BKN110
     FM022300 19011KT P6SM FEW060 BKN250=



000
FTUS43 KDMX 012329
TAFDSM
TAF
KDSM 012329Z 0200/0224 20007KT P6SM FEW100 OVC300
     FM020700 19008KT P6SM SCT100 BKN250
     FM020900 18007KT P6SM VCSH SCT060 BKN110
     FM021500 20012KT P6SM BKN060 BKN110
     FM021700 20015G22KT P6SM SCT060 BKN110
     FM022300 19008KT P6SM FEW060 SCT250=



000
FTUS43 KDMX 012329
TAFOTM
TAF
KOTM 012329Z 0200/0224 21010KT P6SM FEW110 OVC300
     FM020700 19005KT 6SM BR SCT110 BKN250
     FM021400 19009KT P6SM BKN150
     FM021700 21013G20KT P6SM BKN070 BKN150
     FM022300 20008KT P6SM BKN070 OVC250=



000
FTUS43 KDMX 011730
TAFFOD
TAF
KFOD 011730Z 0118/0218 21009KT P6SM FEW040 SCT250
     FM020600 19008KT P6SM SCT050 BKN100=



000
FTUS43 KDMX 011730
TAFALO
TAF
KALO 011730Z 0118/0218 20009KT P6SM SKC
     FM020600 18005KT 5SM BR SCT150
     FM021400 19010KT P6SM BKN120=



000
FTUS43 KDMX 011730
TAFFOD
TAF
KFOD 011730Z 0118/0218 21009KT P6SM FEW040 SCT250
     FM020600 19008KT P6SM SCT050 BKN100=



000
FTUS43 KDMX 011730
TAFDSM
TAF
KDSM 011730Z 0118/0218 21011KT P6SM FEW060 SCT250
     FM020000 18006KT P6SM SCT250
     FM020700 19008KT P6SM SCT100 BKN150=



000
FTUS43 KDMX 011730
TAFMCW
TAF
KMCW 011730Z 0118/0218 20008KT P6SM SCT250
     FM020400 20006KT 5SM BR SCT050 BKN120
     FM021400 18011KT P6SM BKN080=



000
FTUS43 KDMX 011730
TAFOTM
TAF
KOTM 011730Z 0118/0218 21011KT P6SM SKC
     FM020700 19005KT 6SM BR SCT250
     FM021400 19009KT P6SM BKN150=



000
FTUS43 KDMX 011730
TAFDSM
TAF
KDSM 011730Z 0118/0218 21011KT P6SM FEW060 SCT250
     FM020000 18006KT P6SM SCT250
     FM020700 19008KT P6SM SCT100 BKN150=



000
FTUS43 KDMX 011730
TAFALO
TAF
KALO 011730Z 0118/0218 20009KT P6SM SKC
     FM020600 18005KT 5SM BR SCT150
     FM021400 19010KT P6SM BKN120=



000
FTUS43 KDMX 011730
TAFOTM
TAF
KOTM 011730Z 0118/0218 21011KT P6SM SKC
     FM020700 19005KT 6SM BR SCT250
     FM021400 19009KT P6SM BKN150=



000
FTUS43 KDMX 011730
TAFMCW
TAF
KMCW 011730Z 0118/0218 20008KT P6SM SCT250
     FM020400 20006KT 5SM BR SCT050 BKN120
     FM021400 18011KT P6SM BKN080=



000
FTUS43 KDMX 011422 AAA
TAFMCW
TAF AMD
KMCW 011422Z 0114/0212 18007KT 4SM BR SKC
      TEMPO 0114/0116 P6SM NSW
     FM011600 20010KT P6SM FEW060 SCT200
     FM020500 20006KT 6SM BR SCT050 BKN120=



000
FTUS43 KDMX 011422 AAA
TAFMCW
TAF AMD
KMCW 011422Z 0114/0212 18007KT 4SM BR SKC
      TEMPO 0114/0116 P6SM NSW
     FM011600 20010KT P6SM FEW060 SCT200
     FM020500 20006KT 6SM BR SCT050 BKN120=



000
FTUS43 KDMX 011129
TAFALO
TAF
KALO 011129Z 0112/0212 17005KT 6SM BR FEW050
     FM011400 19009KT P6SM FEW060
     FM020600 19005KT 6SM BR FEW050 SCT150=



000
FTUS43 KDMX 011129
TAFMCW
TAF
KMCW 011129Z 0112/0212 18003KT 1/2SM FG VV003
     FM011300 18005KT 3SM BR SCT005
      TEMPO 0113/0114 1SM BR BKN004
     FM011400 20010KT P6SM FEW060 SCT200
     FM020500 20006KT 6SM BR SCT050 BKN120=



000
FTUS43 KDMX 011129
TAFDSM
TAF
KDSM 011129Z 0112/0212 19007KT 6SM BR FEW050
     FM011400 21011KT P6SM FEW060 SCT200
     FM020400 18006KT 6SM BR FEW050 SCT120=



000
FTUS43 KDMX 011129
TAFFOD
TAF
KFOD 011129Z 0112/0212 19005KT 6SM BR FEW050
     FM011400 21010KT P6SM FEW060 SCT200
     FM020200 19006KT P6SM SCT050 BKN120=



000
FTUS43 KDMX 011129
TAFOTM
TAF
KOTM 011129Z 0112/0212 19007KT 6SM BR FEW050
     FM011400 21010KT P6SM FEW060
     FM020600 19005KT 6SM BR FEW050 SCT150=



000
FTUS43 KDMX 011129
TAFALO
TAF
KALO 011129Z 0112/0212 17005KT 6SM BR FEW050
     FM011400 19009KT P6SM FEW060
     FM020600 19005KT 6SM BR FEW050 SCT150=



000
FTUS43 KDMX 011129
TAFOTM
TAF
KOTM 011129Z 0112/0212 19007KT 6SM BR FEW050
     FM011400 21010KT P6SM FEW060
     FM020600 19005KT 6SM BR FEW050 SCT150=



000
FTUS43 KDMX 011129
TAFMCW
TAF
KMCW 011129Z 0112/0212 18003KT 1/2SM FG VV003
     FM011300 18005KT 3SM BR SCT005
      TEMPO 0113/0114 1SM BR BKN004
     FM011400 20010KT P6SM FEW060 SCT200
     FM020500 20006KT 6SM BR SCT050 BKN120=



000
FTUS43 KDMX 011129
TAFDSM
TAF
KDSM 011129Z 0112/0212 19007KT 6SM BR FEW050
     FM011400 21011KT P6SM FEW060 SCT200
     FM020400 18006KT 6SM BR FEW050 SCT120=



000
FTUS43 KDMX 011129
TAFFOD
TAF
KFOD 011129Z 0112/0212 19005KT 6SM BR FEW050
     FM011400 21010KT P6SM FEW060 SCT200
     FM020200 19006KT P6SM SCT050 BKN120=



000
FTUS43 KDMX 011129
TAFALO
TAF
KALO 011129Z 0112/0212 17005KT 6SM BR FEW050
     FM011400 19009KT P6SM FEW060
     FM020600 19005KT 6SM BR FEW050 SCT150=



000
FTUS43 KDMX 011129
TAFFOD
TAF
KFOD 011129Z 0112/0212 19005KT 6SM BR FEW050
     FM011400 21010KT P6SM FEW060 SCT200
     FM020200 19006KT P6SM SCT050 BKN120=



000
FTUS43 KDMX 011129
TAFMCW
TAF
KMCW 011129Z 0112/0212 18003KT 1/2SM FG VV003
     FM011300 18005KT 3SM BR SCT005
      TEMPO 0113/0114 1SM BR BKN004
     FM011400 20010KT P6SM FEW060 SCT200
     FM020500 20006KT 6SM BR SCT050 BKN120=



000
FTUS43 KDMX 011129
TAFDSM
TAF
KDSM 011129Z 0112/0212 19007KT 6SM BR FEW050
     FM011400 21011KT P6SM FEW060 SCT200
     FM020400 18006KT 6SM BR FEW050 SCT120=



000
FTUS43 KDMX 011129
TAFOTM
TAF
KOTM 011129Z 0112/0212 19007KT 6SM BR FEW050
     FM011400 21010KT P6SM FEW060
     FM020600 19005KT 6SM BR FEW050 SCT150=



000
FTUS43 KDMX 010520
TAFFOD
TAF
KFOD 010520Z 0106/0206 VRB03KT 6SM BR SCT050
      TEMPO 0109/0112 3SM BR SCT020 BKN050
     FM011500 21010KT P6SM SCT025
     FM011800 21012G17KT P6SM SCT030
     FM020000 19006KT P6SM SCT050=



000
FTUS43 KDMX 010520
TAFMCW
TAF
KMCW 010520Z 0106/0206 17004KT 1SM BR SCT050
      TEMPO 0106/0109 1/4SM FG BKN005
     FM010900 VRB03KT 1SM BR SCT040
      TEMPO 0109/0112 1/2SM FG SCT006
     FM011500 21009KT P6SM SCT025
     FM011800 21012G17KT P6SM SCT030
     FM020000 20007KT P6SM SCT050=



000
FTUS43 KDMX 010520
TAFFOD
TAF
KFOD 010520Z 0106/0206 VRB03KT 6SM BR SCT050
      TEMPO 0109/0112 3SM BR SCT020 BKN050
     FM011500 21010KT P6SM SCT025
     FM011800 21012G17KT P6SM SCT030
     FM020000 19006KT P6SM SCT050=



000
FTUS43 KDMX 010520
TAFMCW
TAF
KMCW 010520Z 0106/0206 17004KT 1SM BR SCT050
      TEMPO 0106/0109 1/4SM FG BKN005
     FM010900 VRB03KT 1SM BR SCT040
      TEMPO 0109/0112 1/2SM FG SCT006
     FM011500 21009KT P6SM SCT025
     FM011800 21012G17KT P6SM SCT030
     FM020000 20007KT P6SM SCT050=



000
FTUS43 KDMX 010520
TAFALO
TAF
KALO 010520Z 0106/0206 16005KT 6SM BR SCT060
     FM010700 17004KT 3SM BR SCT030
      TEMPO 0109/0112 2SM BR SCT015
     FM011500 21011KT P6SM SCT025
     FM020000 20007KT P6SM SCT050=



000
FTUS43 KDMX 010520
TAFFOD
TAF
KFOD 010520Z 0106/0206 VRB03KT 6SM BR SCT050
      TEMPO 0109/0112 3SM BR SCT020 BKN050
     FM011500 21010KT P6SM SCT025
     FM011800 21012G17KT P6SM SCT030
     FM020000 19006KT P6SM SCT050=



000
FTUS43 KDMX 010520
TAFDSM
TAF
KDSM 010520Z 0106/0206 17005KT 6SM BR SCT040
     FM010700 17004KT 4SM BR SCT025
      TEMPO 0109/0112 2SM BR SCT010
     FM011500 21011KT P6SM SCT030
     FM020000 22008KT P6SM SCT050=



000
FTUS43 KDMX 010520
TAFDSM
TAF
KDSM 010520Z 0106/0206 17005KT 6SM BR SCT040
     FM010700 17004KT 4SM BR SCT025
      TEMPO 0109/0112 2SM BR SCT010
     FM011500 21011KT P6SM SCT030
     FM020000 22008KT P6SM SCT050=



000
FTUS43 KDMX 010520
TAFOTM
TAF
KOTM 010520Z 0106/0206 18005KT 6SM BR FEW050
     FM010700 VRB03KT 6SM BR SCT030
      TEMPO 0109/0112 3SM BR SCT025
     FM011500 21011KT P6SM SCT030
     FM020000 22007KT P6SM SCT050=



000
FTUS43 KDMX 010520
TAFDSM
TAF
KDSM 010520Z 0106/0206 17005KT 6SM BR SCT040
     FM010700 17004KT 4SM BR SCT025
      TEMPO 0109/0112 2SM BR SCT010
     FM011500 21011KT P6SM SCT030
     FM020000 22008KT P6SM SCT050=



000
FTUS43 KDMX 010520
TAFFOD
TAF
KFOD 010520Z 0106/0206 VRB03KT 6SM BR SCT050
      TEMPO 0109/0112 3SM BR SCT020 BKN050
     FM011500 21010KT P6SM SCT025
     FM011800 21012G17KT P6SM SCT030
     FM020000 19006KT P6SM SCT050=



000
FTUS43 KDMX 010520
TAFALO
TAF
KALO 010520Z 0106/0206 16005KT 6SM BR SCT060
     FM010700 17004KT 3SM BR SCT030
      TEMPO 0109/0112 2SM BR SCT015
     FM011500 21011KT P6SM SCT025
     FM020000 20007KT P6SM SCT050=



000
FTUS43 KDMX 010520
TAFDSM
TAF
KDSM 010520Z 0106/0206 17005KT 6SM BR SCT040
     FM010700 17004KT 4SM BR SCT025
      TEMPO 0109/0112 2SM BR SCT010
     FM011500 21011KT P6SM SCT030
     FM020000 22008KT P6SM SCT050=



000
FTUS43 KDMX 010520
TAFALO
TAF
KALO 010520Z 0106/0206 16005KT 6SM BR SCT060
     FM010700 17004KT 3SM BR SCT030
      TEMPO 0109/0112 2SM BR SCT015
     FM011500 21011KT P6SM SCT025
     FM020000 20007KT P6SM SCT050=



000
FTUS43 KDMX 010520
TAFMCW
TAF
KMCW 010520Z 0106/0206 17004KT 1SM BR SCT050
      TEMPO 0106/0109 1/4SM FG BKN005
     FM010900 VRB03KT 1SM BR SCT040
      TEMPO 0109/0112 1/2SM FG SCT006
     FM011500 21009KT P6SM SCT025
     FM011800 21012G17KT P6SM SCT030
     FM020000 20007KT P6SM SCT050=



000
FTUS43 KDMX 010520
TAFOTM
TAF
KOTM 010520Z 0106/0206 18005KT 6SM BR FEW050
     FM010700 VRB03KT 6SM BR SCT030
      TEMPO 0109/0112 3SM BR SCT025
     FM011500 21011KT P6SM SCT030
     FM020000 22007KT P6SM SCT050=



000
FTUS43 KDMX 010520
TAFOTM
TAF
KOTM 010520Z 0106/0206 18005KT 6SM BR FEW050
     FM010700 VRB03KT 6SM BR SCT030
      TEMPO 0109/0112 3SM BR SCT025
     FM011500 21011KT P6SM SCT030
     FM020000 22007KT P6SM SCT050=



000
FTUS43 KDMX 010520
TAFALO
TAF
KALO 010520Z 0106/0206 16005KT 6SM BR SCT060
     FM010700 17004KT 3SM BR SCT030
      TEMPO 0109/0112 2SM BR SCT015
     FM011500 21011KT P6SM SCT025
     FM020000 20007KT P6SM SCT050=



000
FTUS43 KDMX 010436 AAC
TAFMCW
TAF AMD
KMCW 010436Z 0105/0124 17004KT 1SM BR SCT010
      TEMPO 0105/0109 1/4SM FG BKN005
     FM010900 18004KT 1SM BR SCT010
      TEMPO 0109/0112 1/2SM FG SCT006
     FM011500 21009KT P6SM SCT022=



000
FTUS43 KDMX 010436 AAC
TAFMCW
TAF AMD
KMCW 010436Z 0105/0124 17004KT 1SM BR SCT010
      TEMPO 0105/0109 1/4SM FG BKN005
     FM010900 18004KT 1SM BR SCT010
      TEMPO 0109/0112 1/2SM FG SCT006
     FM011500 21009KT P6SM SCT022=



000
FTUS43 KDMX 010436 AAC
TAFMCW
TAF AMD
KMCW 010436Z 0105/0124 17004KT 1SM BR SCT010
      TEMPO 0105/0109 1/4SM FG BKN005
     FM010900 18004KT 1SM BR SCT010
      TEMPO 0109/0112 1/2SM FG SCT006
     FM011500 21009KT P6SM SCT022=



000
FTUS43 KDMX 010436 AAC
TAFMCW
TAF AMD
KMCW 010436Z 0105/0124 17004KT 1SM BR SCT010
      TEMPO 0105/0109 1/4SM FG BKN005
     FM010900 18004KT 1SM BR SCT010
      TEMPO 0109/0112 1/2SM FG SCT006
     FM011500 21009KT P6SM SCT022=



000
FTUS43 KDMX 010429 AAA
TAFOTM
TAF AMD
KOTM 010429Z 0104/0124 18005KT 6SM BR FEW050
     FM010700 VRB03KT 5SM BR SCT025
      TEMPO 0109/0112 3SM BR SCT010
     FM011500 22011KT P6SM SCT030=



000
FTUS43 KDMX 010429 AAA
TAFOTM
TAF AMD
KOTM 010429Z 0104/0124 18005KT 6SM BR FEW050
     FM010700 VRB03KT 5SM BR SCT025
      TEMPO 0109/0112 3SM BR SCT010
     FM011500 22011KT P6SM SCT030=



000
FTUS43 KDMX 010428 AAA
TAFDSM
TAF AMD
KDSM 010428Z 0104/0124 17005KT 6SM BR FEW040
     FM010700 19005KT 4SM BR SCT025
      TEMPO 0109/0112 3SM BR SCT010
     FM011500 22011KT P6SM SCT030=



000
FTUS43 KDMX 010428 AAA
TAFDSM
TAF AMD
KDSM 010428Z 0104/0124 17005KT 6SM BR FEW040
     FM010700 19005KT 4SM BR SCT025
      TEMPO 0109/0112 3SM BR SCT010
     FM011500 22011KT P6SM SCT030=



000
FTUS43 KDMX 010427 AAA
TAFFOD
TAF AMD
KFOD 010427Z 0104/0124 VRB03KT 6SM BR SKC
     FM010600 VRB03KT 3SM BR SCT010
      TEMPO 0109/0112 2SM BR SCT006
     FM011500 21010KT P6SM SCT025=



000
FTUS43 KDMX 010427 AAA
TAFFOD
TAF AMD
KFOD 010427Z 0104/0124 VRB03KT 6SM BR SKC
     FM010600 VRB03KT 3SM BR SCT010
      TEMPO 0109/0112 2SM BR SCT006
     FM011500 21010KT P6SM SCT025=



000
FTUS43 KDMX 010427 AAB
TAFALO
TAF AMD
KALO 010427Z 0104/0124 16005KT 6SM BR FEW035
     FM010600 17004KT 3SM BR SCT020
      TEMPO 0109/0112 1SM BR SCT006
     FM011500 21009KT P6SM SCT025=



000
FTUS43 KDMX 010425 AAB
TAFMCW
TAF AMD
KMCW 010425Z 0104/0124 17004KT 1SM BR SCT030
      TEMPO 0109/0112 1/2SM FG SCT006
     FM011500 21009KT P6SM SCT022=



000
FTUS43 KDMX 010425 AAB
TAFMCW
TAF AMD
KMCW 010425Z 0104/0124 17004KT 1SM BR SCT030
      TEMPO 0109/0112 1/2SM FG SCT006
     FM011500 21009KT P6SM SCT022=



000
FTUS43 KDMX 010216 AAA
TAFALO
TAF AMD
KALO 010216Z 0102/0124 16005KT 6SM BR FEW035
     FM010500 17004KT 5SM BR SCT020
      TEMPO 0109/0112 1SM BR SCT006
     FM011500 21009KT P6SM SCT025=



000
FTUS43 KDMX 010216 AAA
TAFALO
TAF AMD
KALO 010216Z 0102/0124 16005KT 6SM BR FEW035
     FM010500 17004KT 5SM BR SCT020
      TEMPO 0109/0112 1SM BR SCT006
     FM011500 21009KT P6SM SCT025=



000
FTUS43 KDMX 010216 AAA
TAFALO
TAF AMD
KALO 010216Z 0102/0124 16005KT 6SM BR FEW035
     FM010500 17004KT 5SM BR SCT020
      TEMPO 0109/0112 1SM BR SCT006
     FM011500 21009KT P6SM SCT025=



000
FTUS43 KDMX 010215 AAA
TAFMCW
TAF AMD
KMCW 010215Z 0102/0124 17003KT 5SM BR FEW030
     FM010500 19004KT 3SM BR SCT020
      TEMPO 0109/0112 1SM BR SCT006
     FM011500 21009KT P6SM SCT022=



000
FTUS43 KDMX 010215 AAA
TAFMCW
TAF AMD
KMCW 010215Z 0102/0124 17003KT 5SM BR FEW030
     FM010500 19004KT 3SM BR SCT020
      TEMPO 0109/0112 1SM BR SCT006
     FM011500 21009KT P6SM SCT022=



000
FTUS43 KDMX 010215 AAA
TAFMCW
TAF AMD
KMCW 010215Z 0102/0124 17003KT 5SM BR FEW030
     FM010500 19004KT 3SM BR SCT020
      TEMPO 0109/0112 1SM BR SCT006
     FM011500 21009KT P6SM SCT022=



000
FTUS43 KDMX 312328
TAFFOD
TAF
KFOD 312328Z 0100/0124 18006KT P6SM FEW040
     FM010400 18005KT 6SM BR SKC
      TEMPO 0109/0112 2SM BR SCT010
     FM011500 21010KT P6SM SCT025=



000
FTUS43 KDMX 312328
TAFALO
TAF
KALO 312328Z 0100/0124 17006KT P6SM FEW035
     FM010500 17004KT 5SM BR SCT020
      TEMPO 0109/0112 1SM BR SCT006
     FM011500 21009KT P6SM SCT025=



000
FTUS43 KDMX 312328
TAFMCW
TAF
KMCW 312328Z 0100/0124 18007KT P6SM FEW030
     FM010500 19004KT 5SM BR SCT020
      TEMPO 0109/0112 1SM BR SCT006
     FM011500 21009KT P6SM SCT022=



000
FTUS43 KDMX 312328
TAFOTM
TAF
KOTM 312328Z 0100/0124 18006KT P6SM FEW050
     FM010700 19005KT 6SM BR SCT025
      TEMPO 0109/0112 2SM BR SCT006
     FM011500 22011KT P6SM SCT030=



000
FTUS43 KDMX 312328
TAFDSM
TAF
KDSM 312328Z 0100/0124 18007KT P6SM FEW040
     FM010700 19005KT 6SM BR SCT025
      TEMPO 0109/0112 5SM BR SCT010
     FM011500 22011KT P6SM SCT030=



000
FTUS43 KDMX 312328
TAFOTM
TAF
KOTM 312328Z 0100/0124 18006KT P6SM FEW050
     FM010700 19005KT 6SM BR SCT025
      TEMPO 0109/0112 2SM BR SCT006
     FM011500 22011KT P6SM SCT030=



000
FTUS43 KDMX 312328
TAFFOD
TAF
KFOD 312328Z 0100/0124 18006KT P6SM FEW040
     FM010400 18005KT 6SM BR SKC
      TEMPO 0109/0112 2SM BR SCT010
     FM011500 21010KT P6SM SCT025=



000
FTUS43 KDMX 312328
TAFDSM
TAF
KDSM 312328Z 0100/0124 18007KT P6SM FEW040
     FM010700 19005KT 6SM BR SCT025
      TEMPO 0109/0112 5SM BR SCT010
     FM011500 22011KT P6SM SCT030=



000
FTUS43 KDMX 312328
TAFMCW
TAF
KMCW 312328Z 0100/0124 18007KT P6SM FEW030
     FM010500 19004KT 5SM BR SCT020
      TEMPO 0109/0112 1SM BR SCT006
     FM011500 21009KT P6SM SCT022=



000
FTUS43 KDMX 312328
TAFALO
TAF
KALO 312328Z 0100/0124 17006KT P6SM FEW035
     FM010500 17004KT 5SM BR SCT020
      TEMPO 0109/0112 1SM BR SCT006
     FM011500 21009KT P6SM SCT025=



000
FTUS43 KDMX 311734
TAFALO
TAF
KALO 311734Z 3118/0118 18010KT P6SM SCT030
     FM311900 18010G17KT P6SM BKN040
     FM010000 16004KT P6SM FEW040
     FM010500 18003KT 5SM BR SCT020
      TEMPO 0109/0112 1SM BR SCT006
     FM011500 20011KT P6SM SCT025=



000
FTUS43 KDMX 311734
TAFOTM
TAF
KOTM 311734Z 3118/0118 18008KT P6SM SKC
     FM010000 17006KT P6SM SCT040
     FM010700 18003KT 6SM BR SCT025
      TEMPO 0109/0112 2SM BR SCT006
     FM011500 20011KT P6SM SCT030=



000
FTUS43 KDMX 311734
TAFDSM
TAF
KDSM 311734Z 3118/0118 18010KT P6SM FEW017
     FM010000 17006KT P6SM SCT035
     FM010700 18003KT 6SM BR SCT025
      TEMPO 0109/0112 5SM BR SCT010
     FM011500 20011KT P6SM SCT030=



000
FTUS43 KDMX 311734
TAFMCW
TAF
KMCW 311734Z 3118/0118 19010KT P6SM SCT017 BKN022
     FM311900 19013G17KT P6SM SCT022 SCT035
     FM010000 17006KT P6SM FEW040
     FM010500 18003KT 5SM BR SCT020
      TEMPO 0109/0112 1SM BR SCT006
     FM011500 20010KT P6SM SCT022=



000
FTUS43 KDMX 311734
TAFFOD
TAF
KFOD 311734Z 3118/0118 18010KT P6SM SCT020
     FM311900 19011G17KT P6SM BKN035
     FM010000 17004KT P6SM SCT040
      TEMPO 0109/0112 2SM BR SCT010
     FM011500 19008KT P6SM SCT025=



000
FTUS43 KDMX 311734
TAFMCW
TAF
KMCW 311734Z 3118/0118 19010KT P6SM SCT017 BKN022
     FM311900 19013G17KT P6SM SCT022 SCT035
     FM010000 17006KT P6SM FEW040
     FM010500 18003KT 5SM BR SCT020
      TEMPO 0109/0112 1SM BR SCT006
     FM011500 20010KT P6SM SCT022=



000
FTUS43 KDMX 311734
TAFFOD
TAF
KFOD 311734Z 3118/0118 18010KT P6SM SCT020
     FM311900 19011G17KT P6SM BKN035
     FM010000 17004KT P6SM SCT040
      TEMPO 0109/0112 2SM BR SCT010
     FM011500 19008KT P6SM SCT025=



000
FTUS43 KDMX 311734
TAFALO
TAF
KALO 311734Z 3118/0118 18010KT P6SM SCT030
     FM311900 18010G17KT P6SM BKN040
     FM010000 16004KT P6SM FEW040
     FM010500 18003KT 5SM BR SCT020
      TEMPO 0109/0112 1SM BR SCT006
     FM011500 20011KT P6SM SCT025=



000
FTUS43 KDMX 311734
TAFOTM
TAF
KOTM 311734Z 3118/0118 18008KT P6SM SKC
     FM010000 17006KT P6SM SCT040
     FM010700 18003KT 6SM BR SCT025
      TEMPO 0109/0112 2SM BR SCT006
     FM011500 20011KT P6SM SCT030=



000
FTUS43 KDMX 311734
TAFDSM
TAF
KDSM 311734Z 3118/0118 18010KT P6SM FEW017
     FM010000 17006KT P6SM SCT035
     FM010700 18003KT 6SM BR SCT025
      TEMPO 0109/0112 5SM BR SCT010
     FM011500 20011KT P6SM SCT030=



000
FTUS43 KDMX 311649 AAE
TAFMCW
TAF AMD
KMCW 311649Z 3117/0112 19010KT P6SM SCT010
     FM311900 19013G17KT P6SM BKN035
     FM010000 17006KT P6SM FEW040=



000
FTUS43 KDMX 311649 AAE
TAFMCW
TAF AMD
KMCW 311649Z 3117/0112 19010KT P6SM SCT010
     FM311900 19013G17KT P6SM BKN035
     FM010000 17006KT P6SM FEW040=



000
FTUS43 KDMX 311539 AAC
TAFFOD
TAF AMD
KFOD 311539Z 3116/0112 17007KT P6SM SCT008
     FM311630 18010KT P6SM SCT020
     FM311900 19011G18KT P6SM BKN035
     FM010000 17004KT P6SM FEW040
      TEMPO 0109/0112 5SM BR=



000
FTUS43 KDMX 311539 AAC
TAFFOD
TAF AMD
KFOD 311539Z 3116/0112 17007KT P6SM SCT008
     FM311630 18010KT P6SM SCT020
     FM311900 19011G18KT P6SM BKN035
     FM010000 17004KT P6SM FEW040
      TEMPO 0109/0112 5SM BR=



000
FTUS43 KDMX 311539 AAC
TAFFOD
TAF AMD
KFOD 311539Z 3116/0112 17007KT P6SM SCT008
     FM311630 18010KT P6SM SCT020
     FM311900 19011G18KT P6SM BKN035
     FM010000 17004KT P6SM FEW040
      TEMPO 0109/0112 5SM BR=



000
FTUS43 KDMX 311523 AAD
TAFMCW
TAF AMD
KMCW 311523Z 3115/0112 17009KT 6SM BR SCT003
     FM311600 19013G20KT P6SM SCT010
     FM311900 19012G19KT P6SM BKN035
     FM010000 17006KT P6SM FEW040=



000
FTUS43 KDMX 311523 AAD
TAFMCW
TAF AMD
KMCW 311523Z 3115/0112 17009KT 6SM BR SCT003
     FM311600 19013G20KT P6SM SCT010
     FM311900 19012G19KT P6SM BKN035
     FM010000 17006KT P6SM FEW040=



    US Dept of Commerce
    National Oceanic and Atmospheric Administration
    National Weather Service
    1325 East West Highway
    Silver Spring, MD 20910
    Page Author: NWS Internet Services Team
Disclaimer
Information Quality
Credits
Glossary
Privacy Policy
Freedom of Information Act (FOIA)
About Us
Career Opportunities